Time;durP1;ratioP1;P1;durP2;ratioP2;P2;SDS_P1;SDS_P2;PMS_P1;PMS_P2;Temp;Humidity;BMP_temperature;BMP_pressure;BME280_temperature;BME280_humidity;BME280_pressure;Samples;Min_cycle;Max_cycle;Signal;HPM_P1;HPM_P2
2023/04/19 00:00:37;;;;;;;7.60;6.75;;;12.90;53.20;;;;;;5011204;28;20080;-86
2023/04/19 00:03:05;;;;;;;7.88;7.07;;;12.80;53.10;;;;;;5016079;28;20064;-86
2023/04/19 00:05:31;;;;;;;7.47;6.70;;;12.80;53.20;;;;;;5016323;28;20163;-84
2023/04/19 00:07:57;;;;;;;8.15;7.20;;;12.80;53.30;;;;;;5002263;28;20053;-85
2023/04/19 00:10:24;;;;;;;8.23;7.40;;;12.80;53.30;;;;;;5019730;28;20037;-84
2023/04/19 00:12:50;;;;;;;8.73;7.13;;;12.80;53.40;;;;;;5020517;28;20029;-83
2023/04/19 00:15:16;;;;;;;7.80;7.05;;;12.70;53.20;;;;;;5010215;28;20045;-84
2023/04/19 00:17:43;;;;;;;7.88;7.15;;;12.70;53.30;;;;;;5015671;28;20038;-84
2023/04/19 00:20:11;;;;;;;8.82;7.95;;;12.70;53.30;;;;;;5019860;28;20045;-90
2023/04/19 00:22:39;;;;;;;7.90;6.78;;;12.60;53.20;;;;;;5005879;28;20041;-86
2023/04/19 00:25:05;;;;;;;8.07;7.28;;;12.70;53.40;;;;;;5014090;28;20064;-85
2023/04/19 00:27:31;;;;;;;9.13;8.27;;;12.60;53.20;;;;;;5021173;28;20108;-86
2023/04/19 00:29:58;;;;;;;8.50;7.47;;;12.60;53.30;;;;;;5002087;28;20033;-83
2023/04/19 00:32:24;;;;;;;8.00;7.30;;;12.60;53.30;;;;;;5011775;28;20048;-85
2023/04/19 00:34:50;;;;;;;11.27;8.25;;;12.60;53.40;;;;;;5003176;28;20084;-83
2023/04/19 00:37:16;;;;;;;9.18;8.27;;;12.60;53.40;;;;;;5025322;28;20062;-82
2023/04/19 00:39:42;;;;;;;10.57;8.45;;;12.50;53.20;;;;;;5007330;28;20568;-83
2023/04/19 00:42:08;;;;;;;9.43;8.52;;;12.50;53.30;;;;;;5017293;28;20071;-84
2023/04/19 00:44:34;;;;;;;8.77;7.88;;;12.50;53.20;;;;;;4999127;28;20056;-85
2023/04/19 00:47:00;;;;;;;8.57;7.75;;;12.50;53.30;;;;;;5019151;28;20034;-86
2023/04/19 00:49:26;;;;;;;10.18;8.32;;;12.50;53.30;;;;;;5018674;28;20045;-86
2023/04/19 00:51:52;;;;;;;8.05;7.28;;;12.50;53.30;;;;;;5004756;28;20099;-85
2023/04/19 00:54:19;;;;;;;8.68;7.78;;;12.50;53.90;;;;;;5020299;28;20037;-86
2023/04/19 00:56:48;;;;;;;8.98;8.07;;;12.50;53.40;;;;;;5021062;28;20044;-85
2023/04/19 00:59:17;;;;;;;8.85;7.95;;;12.50;53.40;;;;;;5013966;28;20037;-87
2023/04/19 01:01:43;;;;;;;9.13;8.25;;;12.50;53.50;;;;;;5020215;28;20761;-87
2023/04/19 01:04:09;;;;;;;10.63;8.50;;;12.50;53.50;;;;;;5020020;28;20052;-87
2023/04/19 01:06:37;;;;;;;9.27;7.82;;;12.40;53.50;;;;;;5019500;28;20041;-86
2023/04/19 01:09:03;;;;;;;9.95;8.23;;;12.40;53.50;;;;;;5023220;28;20029;-84
2023/04/19 01:11:29;;;;;;;8.85;7.95;;;12.40;53.60;;;;;;5021567;28;20026;-87
2023/04/19 01:13:57;;;;;;;9.63;8.45;;;12.40;53.70;;;;;;5018960;28;20049;-87
2023/04/19 01:16:27;;;;;;;10.05;8.60;;;12.40;53.70;;;;;;5019402;28;20037;-88
2023/04/19 01:18:53;;;;;;;8.93;7.65;;;12.40;53.80;;;;;;5024231;28;20129;-85
2023/04/19 01:21:21;;;;;;;10.63;8.40;;;12.30;53.70;;;;;;5043863;28;20038;-87
2023/04/19 01:23:47;;;;;;;9.93;7.60;;;12.40;54.00;;;;;;5029199;28;20039;-88
2023/04/19 01:26:15;;;;;;;8.63;7.68;;;12.40;54.10;;;;;;5042482;28;20121;-87
2023/04/19 01:28:41;;;;;;;8.85;7.95;;;12.30;54.00;;;;;;5047255;28;20359;-86
2023/04/19 01:31:08;;;;;;;9.00;8.10;;;12.30;54.10;;;;;;5050620;28;20026;-87
2023/04/19 01:33:36;;;;;;;11.80;7.85;;;12.30;54.20;;;;;;5047055;28;20045;-84
2023/04/19 01:36:02;;;;;;;8.82;7.65;;;12.40;54.50;;;;;;5021722;28;20025;-86
2023/04/19 01:38:28;;;;;;;8.63;7.55;;;12.40;54.50;;;;;;5025382;28;20132;-86
2023/04/19 01:40:56;;;;;;;9.07;7.97;;;12.40;54.60;;;;;;5009589;28;20706;-86
2023/04/19 01:43:23;;;;;;;10.68;8.50;;;12.40;54.70;;;;;;5009191;28;20040;-85
2023/04/19 01:45:49;;;;;;;10.80;8.52;;;12.40;54.70;;;;;;5026084;28;20037;-88
2023/04/19 01:48:15;;;;;;;12.13;8.95;;;12.40;54.80;;;;;;5019169;28;20060;-88
2023/04/19 01:50:41;;;;;;;11.30;8.43;;;12.40;54.80;;;;;;5022331;28;20025;-89
2023/04/19 01:53:07;;;;;;;11.27;8.82;;;12.40;54.80;;;;;;5014702;28;20037;-86
2023/04/19 01:55:33;;;;;;;9.00;8.07;;;12.40;54.90;;;;;;5023598;28;20439;-87
2023/04/19 01:57:59;;;;;;;9.55;8.55;;;12.40;54.90;;;;;;5026916;28;20029;-88
2023/04/19 02:00:25;;;;;;;9.43;8.52;;;12.50;55.10;;;;;;5009860;28;20056;-87
2023/04/19 02:02:50;;;;;;;9.90;8.35;;;12.40;55.00;;;;;;5028008;28;20037;-86
2023/04/19 02:05:16;;;;;;;11.32;8.68;;;12.40;55.00;;;;;;5020240;28;20193;-87
2023/04/19 02:07:43;;;;;;;12.38;8.93;;;12.50;55.30;;;;;;5008836;28;20491;-85
2023/04/19 02:10:12;;;;;;;11.48;8.35;;;12.40;55.10;;;;;;5027751;28;20779;-84
2023/04/19 02:12:40;;;;;;;10.30;8.32;;;12.40;55.20;;;;;;5005923;28;20026;-85
2023/04/19 02:15:07;;;;;;;10.68;8.07;;;12.40;55.30;;;;;;5001981;28;20037;-88
2023/04/19 02:17:34;;;;;;;10.05;8.88;;;12.40;55.40;;;;;;5002214;28;20155;-89
2023/04/19 02:20:00;;;;;;;9.40;8.45;;;12.50;55.70;;;;;;5010076;28;20528;-87
2023/04/19 02:22:26;;;;;;;9.43;7.93;;;12.50;55.70;;;;;;5009257;28;20038;-87
2023/04/19 02:24:52;;;;;;;10.50;8.63;;;12.50;55.70;;;;;;5001479;28;20498;-86
2023/04/19 02:27:18;;;;;;;12.15;9.30;;;12.50;55.70;;;;;;5019377;28;20037;-89
2023/04/19 02:29:45;;;;;;;11.18;8.95;;;12.50;56.40;;;;;;5004507;28;20031;-89
2023/04/19 02:32:11;;;;;;;9.77;8.65;;;12.50;55.90;;;;;;5009445;28;20034;-89
2023/04/19 02:34:38;;;;;;;12.85;8.60;;;12.50;55.90;;;;;;5035727;28;20033;-89
2023/04/19 02:37:04;;;;;;;9.68;8.65;;;12.50;56.00;;;;;;5011376;28;20048;-83
2023/04/19 02:39:30;;;;;;;10.30;8.20;;;12.50;56.00;;;;;;5010011;28;20467;-83
2023/04/19 02:41:56;;;;;;;10.55;8.93;;;12.50;56.00;;;;;;5024439;28;20025;-84
2023/04/19 02:44:22;;;;;;;14.65;9.05;;;12.50;56.10;;;;;;5025909;28;20045;-82
2023/04/19 02:46:49;;;;;;;10.02;8.18;;;12.50;56.20;;;;;;5007809;28;20055;-87
2023/04/19 02:49:17;;;;;;;12.10;9.02;;;12.40;56.00;;;;;;5015006;28;20666;-86
2023/04/19 02:51:43;;;;;;;18.08;10.38;;;12.50;56.80;;;;;;5009693;28;20037;-86
2023/04/19 02:54:11;;;;;;;13.50;9.45;;;12.50;56.30;;;;;;5008412;28;20030;-85
2023/04/19 02:56:38;;;;;;;12.75;8.98;;;12.40;56.20;;;;;;4983344;28;20466;-86
2023/04/19 02:59:04;;;;;;;12.80;9.85;;;12.50;56.40;;;;;;5009058;28;20045;-86
2023/04/19 03:01:31;;;;;;;9.57;8.40;;;12.40;56.20;;;;;;5002808;28;20037;-86
2023/04/19 03:03:59;;;;;;;12.65;9.63;;;12.40;56.30;;;;;;5005135;28;20037;-87
2023/04/19 03:06:25;;;;;;;10.10;8.38;;;12.50;56.50;;;;;;5018574;28;20056;-88
2023/04/19 03:08:51;;;;;;;11.35;8.60;;;12.40;56.40;;;;;;5005568;28;20033;-87
2023/04/19 03:11:18;;;;;;;11.95;9.48;;;12.40;56.40;;;;;;5009521;28;20018;-88
2023/04/19 03:13:45;;;;;;;13.52;9.00;;;12.40;56.50;;;;;;5005410;28;20041;-88
2023/04/19 03:16:12;;;;;;;10.20;8.38;;;12.40;56.50;;;;;;5009396;28;20034;-89
2023/04/19 03:18:39;;;;;;;12.95;10.35;;;12.40;56.60;;;;;;5010217;28;20141;-87
2023/04/19 03:21:08;;;;;;;11.98;9.10;;;12.40;56.70;;;;;;5009458;28;20040;-88
2023/04/19 03:23:44;;;;;;;11.40;8.50;;;12.30;56.50;;;;;;4999486;28;20038;-88
2023/04/19 03:26:10;;;;;;;9.25;8.35;;;12.40;56.70;;;;;;5019394;28;20025;-88
2023/04/19 03:28:43;;;;;;;;;;;12.30;56.60;;;;;;4993483;28;20105;-88
2023/04/19 03:31:21;;;;;;;12.68;9.45;;;12.40;56.80;;;;;;4975961;28;19913;-88
2023/04/19 03:33:49;;;;;;;10.80;8.85;;;12.30;56.50;;;;;;5026233;28;20033;-90
2023/04/19 03:36:16;;;;;;;11.45;9.32;;;12.30;56.60;;;;;;5010175;28;20072;-89
2023/04/19 03:38:44;;;;;;;12.32;9.52;;;12.30;56.70;;;;;;5009224;28;20049;-88
2023/04/19 03:41:24;;;;;;;11.15;9.82;;;12.30;56.80;;;;;;5007188;28;20037;-89
2023/04/19 03:43:58;;;;;;;14.05;9.57;;;12.30;56.90;;;;;;5005651;28;20037;-90
2023/04/19 03:46:24;;;;;;;10.82;9.73;;;12.30;56.90;;;;;;5020389;28;20034;-90
2023/04/19 03:48:51;;;;;;;10.35;8.68;;;12.30;57.00;;;;;;5018818;28;20064;-88
2023/04/19 03:51:18;;;;;;;10.63;9.63;;;12.30;57.00;;;;;;5022069;28;20044;-86
2023/04/19 03:53:44;;;;;;;13.88;10.73;;;12.30;57.10;;;;;;5016326;28;20037;-87
2023/04/19 03:56:10;;;;;;;15.35;9.98;;;12.30;57.20;;;;;;5019547;28;20042;-88
2023/04/19 03:58:36;;;;;;;13.35;10.00;;;12.30;57.20;;;;;;4990631;28;20042;-88
2023/04/19 04:01:07;;;;;;;13.13;10.05;;;12.20;57.10;;;;;;5020556;28;20116;-88
2023/04/19 04:03:34;;;;;;;16.00;10.25;;;12.20;57.20;;;;;;5022842;28;20116;-88
2023/04/19 04:06:02;;;;;;;12.98;9.80;;;12.20;57.20;;;;;;5022919;28;20026;-93
2023/04/19 04:08:28;;;;;;;15.38;11.23;;;12.20;57.30;;;;;;5018080;28;20080;-89
2023/04/19 04:10:54;;;;;;;10.50;9.38;;;12.20;57.30;;;;;;5018153;28;20366;-90
2023/04/19 04:13:20;;;;;;;15.27;10.85;;;12.20;57.40;;;;;;5026133;28;20116;-90
2023/04/19 04:16:01;;;;;;;13.90;10.70;;;12.20;57.50;;;;;;5011600;28;20037;-91
2023/04/19 04:18:27;;;;;;;12.32;9.93;;;12.20;57.50;;;;;;5019489;28;20041;-90
2023/04/19 04:20:54;;;;;;;12.43;9.85;;;12.10;57.40;;;;;;5020539;28;20570;-90
2023/04/19 04:23:21;;;;;;;12.90;10.85;;;12.20;57.70;;;;;;5017165;28;20091;-87
2023/04/19 04:25:58;;;;;;;13.32;10.63;;;12.10;57.50;;;;;;5024479;28;20033;-86
2023/04/19 04:28:26;;;;;;;14.95;10.73;;;12.20;57.90;;;;;;5006293;28;20214;-85
2023/04/19 04:30:56;;;;;;;12.82;10.02;;;12.10;57.60;;;;;;5014891;28;20036;-89
2023/04/19 04:33:25;;;;;;;16.70;10.30;;;12.10;57.70;;;;;;5024625;28;20037;-87
2023/04/19 04:35:52;;;;;;;14.27;10.32;;;12.10;57.70;;;;;;5014742;28;20041;-85
2023/04/19 04:38:22;;;;;;;11.73;10.50;;;12.10;57.80;;;;;;5024381;28;20042;-89
2023/04/19 04:40:52;;;;;;;13.80;10.40;;;12.10;58.40;;;;;;5023827;28;20030;-89
2023/04/19 04:43:22;;;;;;;12.65;10.70;;;12.10;58.00;;;;;;5025050;28;20041;-88
2023/04/19 04:45:49;;;;;;;12.30;9.23;;;12.10;58.00;;;;;;5023615;28;20665;-90
2023/04/19 04:48:16;;;;;;;11.77;9.38;;;12.10;58.10;;;;;;5008972;28;20489;-87
2023/04/19 04:50:43;;;;;;;13.15;9.48;;;12.10;58.20;;;;;;5014085;28;20033;-89
2023/04/19 04:53:11;;;;;;;14.05;9.63;;;12.00;58.10;;;;;;4985327;28;20051;-88
2023/04/19 04:55:37;;;;;;;13.02;10.27;;;12.00;58.20;;;;;;4997887;28;20030;-85
2023/04/19 04:58:06;;;;;;;13.80;10.10;;;12.00;58.30;;;;;;5001650;28;20034;-92
2023/04/19 05:00:58;;;;;;;12.18;9.32;;;12.00;58.40;;;;;;4993097;28;20288;-96
2023/04/19 05:03:26;;;;;;;13.88;10.10;;;12.00;58.50;;;;;;5009152;28;20041;-92
2023/04/19 05:05:56;;;;;;;13.38;9.80;;;11.90;58.40;;;;;;5000996;28;20048;-92
2023/04/19 05:08:25;;;;;;;14.00;10.23;;;11.90;58.50;;;;;;5001831;28;20064;-95
2023/04/19 05:10:52;;;;;;;12.25;10.15;;;11.90;58.60;;;;;;4997873;28;20026;-90
2023/04/19 05:13:21;;;;;;;12.55;9.27;;;11.90;58.70;;;;;;5006860;28;20083;-90
2023/04/19 05:15:48;;;;;;;10.90;9.52;;;11.90;58.80;;;;;;4996263;28;20033;-93
2023/04/19 05:18:14;;;;;;;12.35;10.50;;;11.90;58.90;;;;;;4997974;28;20615;-91
2023/04/19 05:20:42;;;;;;;13.57;10.50;;;11.90;59.00;;;;;;4992147;28;20667;-95
2023/04/19 05:23:17;;;;;;;13.95;10.55;;;11.80;58.90;;;;;;5006734;28;20033;-89
2023/04/19 05:25:43;;;;;;;12.82;10.43;;;11.90;59.10;;;;;;4999390;28;20061;-88
2023/04/19 05:28:10;;;;;;;13.65;10.13;;;11.90;59.20;;;;;;4998390;28;20300;-86
2023/04/19 05:30:46;;;;;;;12.82;9.43;;;11.90;59.30;;;;;;4999232;28;20037;-86
2023/04/19 05:33:12;;;;;;;16.02;10.88;;;11.90;59.30;;;;;;4997402;28;20119;-86
2023/04/19 05:35:38;;;;;;;15.25;10.20;;;11.90;59.40;;;;;;4994935;28;20029;-85
2023/04/19 05:38:05;;;;;;;12.90;9.82;;;12.00;59.60;;;;;;5005532;28;20040;-84
2023/04/19 05:40:31;;;;;;;11.02;9.90;;;12.00;59.70;;;;;;4995871;28;20437;-86
2023/04/19 05:42:57;;;;;;;12.02;10.68;;;12.00;59.80;;;;;;5010275;28;20018;-87
2023/04/19 05:45:25;;;;;;;11.73;10.23;;;12.00;59.80;;;;;;4988283;28;20038;-93
2023/04/19 05:47:51;;;;;;;16.75;11.48;;;12.10;60.10;;;;;;4978890;28;20137;-91
2023/04/19 05:50:20;;;;;;;11.85;10.20;;;12.10;60.20;;;;;;5003449;28;20052;-90
2023/04/19 05:53:02;;;;;;;18.23;14.25;;;12.00;60.10;;;;;;5020374;28;20039;-86
2023/04/19 05:55:28;;;;;;;21.17;12.93;;;12.10;60.20;;;;;;4990453;28;20044;-83
2023/04/19 05:57:55;;;;;;;20.42;13.63;;;12.10;60.00;;;;;;5001187;28;20923;-89
2023/04/19 06:00:26;;;;;;;20.77;14.50;;;12.00;60.00;;;;;;4980560;28;20484;-87
2023/04/19 06:02:59;;;;;;;20.75;13.88;;;12.00;60.20;;;;;;4999516;28;20766;-86
2023/04/19 06:05:26;;;;;;;20.52;13.45;;;12.00;60.30;;;;;;4998906;28;20145;-86
2023/04/19 06:07:55;;;;;;;19.42;12.90;;;11.90;60.20;;;;;;5009127;28;20649;-92
2023/04/19 06:10:22;;;;;;;15.70;13.60;;;12.00;60.50;;;;;;5003999;28;20135;-88
2023/04/19 06:12:48;;;;;;;15.52;12.80;;;12.00;60.60;;;;;;4994945;28;20076;-89
2023/04/19 06:15:14;;;;;;;16.95;13.25;;;12.00;60.70;;;;;;5002882;28;20139;-87
2023/04/19 06:17:40;;;;;;;18.80;12.88;;;12.00;60.80;;;;;;4980761;28;20045;-87
2023/04/19 06:20:08;;;;;;;16.20;13.02;;;12.00;60.90;;;;;;4984892;28;20970;-92
2023/04/19 06:22:40;;;;;;;18.30;12.07;;;12.00;60.90;;;;;;5016387;28;20480;-89
2023/04/19 06:25:06;;;;;;;16.10;13.00;;;12.10;61.10;;;;;;5012253;28;20041;-85
2023/04/19 06:27:32;;;;;;;16.63;12.00;;;12.10;61.10;;;;;;5007702;28;20386;-83
2023/04/19 06:29:59;;;;;;;12.65;10.75;;;12.20;61.20;;;;;;4998564;28;20385;-84
2023/04/19 06:32:25;;;;;;;17.38;9.30;;;12.20;61.50;;;;;;5003218;28;20068;-83
2023/04/19 06:34:51;;;;;;;10.70;9.45;;;12.40;62.20;;;;;;5009257;28;20037;-84
2023/04/19 06:37:17;;;;;;;14.63;9.43;;;12.60;62.70;;;;;;5010108;28;20116;-85
2023/04/19 06:39:43;;;;;;;10.88;9.32;;;12.80;63.00;;;;;;5021991;28;20038;-86
2023/04/19 06:42:09;;;;;;;11.23;9.20;;;13.10;63.20;;;;;;5025008;28;20033;-86
2023/04/19 06:44:35;;;;;;;13.52;9.27;;;13.40;63.40;;;;;;5044713;28;20041;-86
2023/04/19 06:47:02;;;;;;;12.60;9.10;;;13.60;63.40;;;;;;5029018;28;20061;-85
2023/04/19 06:49:27;;;;;;;11.98;10.10;;;13.80;63.30;;;;;;5034853;28;20045;-86
2023/04/19 06:51:53;;;;;;;12.35;9.32;;;14.00;63.30;;;;;;5049257;28;20029;-86
2023/04/19 06:54:19;;;;;;;9.98;8.20;;;14.20;63.30;;;;;;5021138;28;20409;-92
2023/04/19 06:56:47;;;;;;;13.52;9.40;;;14.40;63.30;;;;;;5029146;28;20120;-92
2023/04/19 06:59:19;;;;;;;13.48;8.75;;;14.70;63.40;;;;;;5025010;28;20065;-90
2023/04/19 07:01:46;;;;;;;10.38;8.10;;;14.80;63.30;;;;;;5015560;28;20033;-90
2023/04/19 07:04:13;;;;;;;9.98;8.20;;;15.00;63.20;;;;;;5018852;28;20037;-91
2023/04/19 07:06:39;;;;;;;12.23;8.07;;;15.20;63.20;;;;;;5011903;28;20030;-89
2023/04/19 07:09:06;;;;;;;10.63;8.48;;;15.40;63.20;;;;;;5019737;28;20612;-88
2023/04/19 07:11:33;;;;;;;9.95;8.05;;;15.60;63.10;;;;;;5016013;28;20033;-87
2023/04/19 07:14:02;;;;;;;9.80;8.02;;;15.80;63.10;;;;;;5018026;28;20565;-88
2023/04/19 07:16:28;;;;;;;10.40;8.50;;;16.00;63.00;;;;;;5020816;28;20045;-88
2023/04/19 07:18:54;;;;;;;11.32;8.35;;;16.10;62.80;;;;;;5013329;28;20045;-88
2023/04/19 07:21:20;;;;;;;9.30;7.70;;;16.30;62.80;;;;;;5015352;28;20045;-88
2023/04/19 07:23:46;;;;;;;14.77;8.68;;;16.40;62.60;;;;;;5010134;28;20820;-82
2023/04/19 07:26:13;;;;;;;11.35;9.38;;;16.60;62.50;;;;;;5017009;28;20029;-82
2023/04/19 07:28:39;;;;;;;9.70;8.57;;;16.70;62.30;;;;;;5003808;28;20037;-83
2023/04/19 07:31:05;;;;;;;10.23;8.82;;;16.80;62.10;;;;;;5005332;28;20060;-83
2023/04/19 07:33:31;;;;;;;13.50;9.82;;;16.80;61.90;;;;;;5014955;28;20042;-83
2023/04/19 07:35:58;;;;;;;12.18;10.32;;;16.90;61.80;;;;;;5020038;28;20035;-85
2023/04/19 07:38:24;;;;;;;13.75;10.43;;;16.90;61.50;;;;;;5012761;28;20040;-84
2023/04/19 07:40:50;;;;;;;12.43;10.00;;;17.00;61.50;;;;;;4991380;28;20025;-85
2023/04/19 07:43:16;;;;;;;14.85;11.02;;;17.00;61.30;;;;;;5018236;28;20494;-86
2023/04/19 07:45:42;;;;;;;12.25;10.60;;;17.00;61.20;;;;;;5013758;28;20042;-83
2023/04/19 07:48:08;;;;;;;11.65;10.38;;;17.00;61.00;;;;;;5012616;28;20065;-88
2023/04/19 07:50:34;;;;;;;12.82;10.45;;;17.10;61.00;;;;;;4983553;28;20688;-85
2023/04/19 07:52:59;;;;;;;11.75;9.73;;;17.10;60.90;;;;;;4995204;28;20063;-86
2023/04/19 07:55:25;;;;;;;13.82;10.45;;;17.20;60.90;;;;;;4999268;28;20034;-86
2023/04/19 07:57:51;;;;;;;10.75;9.65;;;17.30;61.00;;;;;;5015055;28;20441;-86
2023/04/19 08:00:20;;;;;;;12.90;10.25;;;17.40;60.90;;;;;;4993812;28;20505;-86
2023/04/19 08:02:47;;;;;;;12.20;9.38;;;17.60;61.00;;;;;;5003789;28;20029;-88
2023/04/19 08:05:18;;;;;;;11.02;9.93;;;17.90;61.10;;;;;;5011605;28;20081;-87
2023/04/19 08:07:44;;;;;;;11.75;9.23;;;18.30;61.10;;;;;;5011975;28;20041;-87
2023/04/19 08:10:11;;;;;;;11.40;10.15;;;18.60;60.80;;;;;;4981031;28;20120;-88
2023/04/19 08:12:37;;;;;;;11.95;9.40;;;18.80;60.40;;;;;;4977781;28;20030;-87
2023/04/19 08:15:06;;;;;;;11.57;9.55;;;18.90;60.00;;;;;;4994423;28;20041;-85
2023/04/19 08:17:33;;;;;;;11.55;10.45;;;19.00;59.70;;;;;;5010169;28;20065;-85
2023/04/19 08:19:59;;;;;;;10.73;9.55;;;19.10;59.70;;;;;;5005410;28;20577;-86
2023/04/19 08:22:25;;;;;;;11.07;9.43;;;19.10;59.50;;;;;;5008789;28;20032;-86
2023/04/19 08:24:52;;;;;;;11.38;9.35;;;19.10;59.30;;;;;;4991052;28;20035;-88
2023/04/19 08:27:18;;;;;;;10.23;9.13;;;19.10;59.20;;;;;;4992112;28;20038;-87
2023/04/19 08:29:45;;;;;;;14.57;11.13;;;19.10;59.10;;;;;;5000071;28;20751;-88
2023/04/19 08:32:11;;;;;;;11.40;10.30;;;19.20;59.00;;;;;;4991689;28;20053;-84
2023/04/19 08:34:39;;;;;;;10.85;9.85;;;19.30;59.00;;;;;;4992094;28;20034;-85
2023/04/19 08:37:06;;;;;;;11.82;10.55;;;19.40;58.70;;;;;;4992428;28;20482;-81
2023/04/19 08:39:33;;;;;;;10.45;9.43;;;19.50;58.70;;;;;;4998595;28;20093;-82
2023/04/19 08:42:05;;;;;;;11.75;10.55;;;19.70;59.30;;;;;;4992635;28;20870;-82
2023/04/19 08:44:32;;;;;;;11.23;10.13;;;19.80;58.50;;;;;;5010931;28;20073;-81
2023/04/19 08:47:00;;;;;;;11.10;9.18;;;19.90;58.40;;;;;;4989739;28;20038;-81
2023/04/19 08:49:27;;;;;;;12.18;10.93;;;20.10;58.30;;;;;;5006017;28;21658;-82
2023/04/19 08:51:56;;;;;;;11.57;10.40;;;20.20;58.10;;;;;;5017365;28;20076;-83
2023/04/19 08:54:23;;;;;;;11.23;10.18;;;20.30;57.90;;;;;;5012767;28;20494;-80
2023/04/19 08:56:53;;;;;;;10.45;9.38;;;20.30;57.70;;;;;;5013412;28;20077;-80
2023/04/19 08:59:19;;;;;;;11.27;10.10;;;20.40;57.70;;;;;;5016644;28;20123;-86
2023/04/19 09:01:45;;;;;;;10.95;9.80;;;20.40;57.50;;;;;;5000040;28;20041;-82
2023/04/19 09:04:11;;;;;;;10.90;9.90;;;20.60;57.60;;;;;;5012700;28;20045;-84
2023/04/19 09:06:38;;;;;;;12.00;10.90;;;20.70;57.70;;;;;;4998368;28;20103;-85
2023/04/19 09:09:25;;;;;;;13.85;11.75;;;20.80;57.50;;;;;;5013099;28;20511;-85
2023/04/19 09:11:52;;;;;;;13.90;12.60;;;20.90;57.10;;;;;;5014156;28;20111;-85
2023/04/19 09:14:19;;;;;;;12.65;11.35;;;21.00;57.10;;;;;;5012297;28;20045;-87
2023/04/19 09:16:45;;;;;;;12.95;11.75;;;21.20;57.00;;;;;;5010940;28;20068;-84
2023/04/19 09:19:11;;;;;;;13.20;11.90;;;21.30;56.90;;;;;;5010316;28;20529;-84
2023/04/19 09:21:38;;;;;;;16.35;14.23;;;21.50;57.20;;;;;;5012095;28;20116;-83
2023/04/19 09:24:05;;;;;;;14.23;12.73;;;21.60;56.60;;;;;;5033315;28;20112;-83
2023/04/19 09:26:31;;;;;;;13.18;11.88;;;21.70;56.50;;;;;;5016108;28;20041;-83
2023/04/19 09:29:05;;;;;;;12.80;11.50;;;21.70;56.20;;;;;;5008623;28;20038;-82
2023/04/19 09:31:36;;;;;;;13.48;12.13;;;21.80;56.00;;;;;;5014114;28;20073;-82
2023/04/19 09:34:18;;;;;;;14.13;12.50;;;21.80;56.00;;;;;;5014624;28;21229;-81
2023/04/19 09:36:45;;;;;;;13.93;12.63;;;21.90;55.70;;;;;;5017613;28;20052;-82
2023/04/19 09:39:11;;;;;;;13.68;12.45;;;21.90;55.70;;;;;;5014353;28;20041;-84
2023/04/19 09:41:53;;;;;;;12.20;11.00;;;22.00;55.60;;;;;;5016579;28;20040;-84
2023/04/19 09:44:20;;;;;;;14.57;13.05;;;22.10;55.30;;;;;;5013528;28;20095;-82
2023/04/19 09:46:48;;;;;;;14.55;13.05;;;22.20;55.50;;;;;;5014955;28;20034;-82
2023/04/19 09:49:23;;;;;;;14.30;12.95;;;22.20;55.30;;;;;;4998959;28;20050;-83
2023/04/19 09:51:53;;;;;;;13.73;12.48;;;22.30;55.10;;;;;;5002481;28;20157;-85
2023/04/19 09:54:22;;;;;;;12.10;10.82;;;22.40;55.00;;;;;;4977368;28;20149;-82
2023/04/19 09:56:49;;;;;;;13.57;12.30;;;22.50;54.90;;;;;;4997202;28;20033;-84
2023/04/19 09:59:15;;;;;;;13.50;12.25;;;22.60;54.90;;;;;;4977332;28;20060;-83
2023/04/19 10:01:47;;;;;;;15.43;13.90;;;22.70;54.80;;;;;;4983687;28;20084;-82
2023/04/19 10:04:20;;;;;;;17.02;15.00;;;22.80;54.50;;;;;;4983335;28;20057;-81
2023/04/19 10:06:51;;;;;;;15.15;13.70;;;22.90;54.30;;;;;;5002108;28;20135;-82
2023/04/19 10:09:18;;;;;;;16.38;14.73;;;22.90;54.00;;;;;;4994766;28;20038;-81
2023/04/19 10:11:52;;;;;;;17.70;16.00;;;23.00;54.00;;;;;;4996269;28;20030;-82
2023/04/19 10:14:26;;;;;;;14.00;12.70;;;23.10;53.60;;;;;;4983880;28;20048;-82
2023/04/19 10:16:55;;;;;;;15.70;14.23;;;23.20;53.60;;;;;;4969811;28;20033;-82
2023/04/19 10:19:22;;;;;;;16.50;15.00;;;23.20;53.50;;;;;;4986723;28;20695;-82
2023/04/19 10:21:50;;;;;;;15.57;14.07;;;23.20;53.20;;;;;;4993520;28;20048;-80
2023/04/19 10:24:20;;;;;;;17.25;15.55;;;23.20;53.00;;;;;;4988614;28;20034;-85
2023/04/19 10:27:10;;;;;;;16.27;14.77;;;23.20;52.80;;;;;;4993712;28;20136;-83
2023/04/19 10:29:55;;;;;;;16.15;14.65;;;23.30;52.40;;;;;;4966901;28;20542;-84
2023/04/19 10:32:23;;;;;;;17.33;15.52;;;23.40;52.40;;;;;;5000677;28;20047;-82
2023/04/19 10:34:54;;;;;;;15.63;14.10;;;23.50;52.70;;;;;;4979074;28;20034;-83
2023/04/19 10:37:25;;;;;;;16.42;14.85;;;23.60;52.60;;;;;;5000253;28;20512;-82
2023/04/19 10:39:51;;;;;;;16.23;14.65;;;23.70;52.50;;;;;;4990863;28;20387;-83
2023/04/19 10:42:17;;;;;;;15.93;14.45;;;23.90;52.60;;;;;;4980197;28;20072;-84
2023/04/19 10:45:28;;;;;;;16.77;15.13;;;24.00;52.50;;;;;;4991608;28;20180;-85
2023/04/19 10:47:54;;;;;;;15.23;13.82;;;24.10;52.20;;;;;;4978131;28;20073;-83
2023/04/19 10:50:22;;;;;;;15.75;13.75;;;24.20;52.50;;;;;;5012139;28;20084;-85
2023/04/19 10:52:48;;;;;;;15.60;14.07;;;24.30;52.20;;;;;;5014249;28;20374;-84
2023/04/19 10:55:18;;;;;;;16.30;14.52;;;24.50;52.40;;;;;;5008126;28;20040;-80
2023/04/19 10:58:04;;;;;;;15.73;14.13;;;24.60;52.00;;;;;;5021308;28;20041;-81
2023/04/19 11:00:34;;;;;;;14.77;13.38;;;24.80;51.60;;;;;;5012968;28;20462;-83
2023/04/19 11:03:40;;;;;;;14.98;13.77;;;24.90;51.80;;;;;;5013394;28;20037;-83
2023/04/19 11:06:21;;;;;;;14.20;12.88;;;25.00;51.20;;;;;;5008968;28;20528;-85
2023/04/19 11:08:47;;;;;;;14.77;13.38;;;25.20;51.30;;;;;;5008865;28;20034;-79
2023/04/19 11:11:14;;;;;;;15.85;13.90;;;25.20;51.20;;;;;;4990415;28;20446;-80
2023/04/19 11:13:43;;;;;;;15.18;13.77;;;25.20;51.00;;;;;;4993092;28;20029;-80
2023/04/19 11:16:09;;;;;;;15.60;14.13;;;25.10;50.80;;;;;;4987254;28;20056;-84
2023/04/19 11:18:35;;;;;;;14.90;12.38;;;25.10;50.90;;;;;;5005559;28;20097;-82
2023/04/19 11:21:01;;;;;;;13.05;11.73;;;24.90;50.70;;;;;;5002829;28;20066;-80
2023/04/19 11:23:27;;;;;;;13.57;12.48;;;24.80;50.70;;;;;;5014245;28;20037;-84
2023/04/19 11:25:54;;;;;;;14.65;13.27;;;24.70;50.70;;;;;;5008141;28;20571;-86
2023/04/19 11:28:20;;;;;;;13.75;12.45;;;24.60;50.60;;;;;;4984388;28;20061;-83
2023/04/19 11:30:48;;;;;;;12.10;10.98;;;24.50;50.60;;;;;;5003051;28;20063;-83
2023/04/19 11:33:14;;;;;;;13.27;12.05;;;24.40;50.70;;;;;;5014282;28;20460;-84
2023/04/19 11:35:42;;;;;;;11.48;10.43;;;24.30;50.60;;;;;;5012165;28;20038;-86
2023/04/19 11:38:11;;;;;;;12.15;10.98;;;24.30;50.70;;;;;;5007236;28;20052;-86
2023/04/19 11:40:37;;;;;;;11.27;10.27;;;24.20;50.50;;;;;;5011688;28;20081;-85
2023/04/19 11:43:04;;;;;;;11.43;9.52;;;24.10;50.50;;;;;;5014744;28;20556;-82
2023/04/19 11:45:35;;;;;;;11.18;10.10;;;24.10;50.50;;;;;;4992429;28;20029;-84
2023/04/19 11:48:04;;;;;;;12.05;10.95;;;24.10;50.60;;;;;;5003586;28;20573;-82
2023/04/19 11:50:40;;;;;;;10.82;9.93;;;24.10;51.20;;;;;;4991244;28;20037;-81
2023/04/19 11:53:26;;;;;;;9.98;9.07;;;24.30;50.80;;;;;;5006705;28;20025;-82
2023/04/19 11:56:10;;;;;;;11.00;9.90;;;24.40;50.60;;;;;;5003095;28;20035;-83
2023/04/19 11:58:38;;;;;;;10.60;9.60;;;24.50;50.50;;;;;;5007943;28;20140;-83
2023/04/19 12:01:09;;;;;;;10.70;9.70;;;24.60;50.70;;;;;;5014702;28;20029;-82
2023/04/19 12:03:53;;;;;;;11.75;10.55;;;24.70;50.70;;;;;;5001874;28;20545;-83
2023/04/19 12:06:24;;;;;;;10.50;9.65;;;24.70;50.30;;;;;;5014358;28;20034;-84
2023/04/19 12:08:52;;;;;;;11.27;10.27;;;24.80;50.30;;;;;;4996379;28;20088;-81
2023/04/19 12:11:20;;;;;;;10.77;9.77;;;24.80;50.30;;;;;;4998907;28;20145;-84
2023/04/19 12:13:48;;;;;;;10.63;9.48;;;24.80;50.20;;;;;;5013023;28;20808;-85
2023/04/19 12:16:25;;;;;;;10.98;9.90;;;24.80;50.10;;;;;;5014385;28;20033;-87
2023/04/19 12:18:51;;;;;;;12.25;11.15;;;24.80;50.00;;;;;;5018823;28;20105;-85
2023/04/19 12:21:29;;;;;;;11.25;10.23;;;24.80;49.90;;;;;;5039232;28;20056;-85
2023/04/19 12:23:57;;;;;;;10.25;9.20;;;24.80;49.70;;;;;;5018820;28;20014;-88
2023/04/19 12:26:24;;;;;;;12.23;9.93;;;24.80;50.00;;;;;;5019341;28;20021;-91
2023/04/19 12:28:50;;;;;;;10.52;9.57;;;24.80;49.90;;;;;;5009738;28;20045;-87
2023/04/19 12:31:15;;;;;;;10.63;9.60;;;24.90;49.90;;;;;;5033090;28;20048;-87
2023/04/19 12:33:41;;;;;;;10.55;9.55;;;24.90;50.20;;;;;;5044333;28;20014;-85
2023/04/19 12:36:07;;;;;;;12.00;11.00;;;25.10;49.60;;;;;;5042105;28;20473;-87
2023/04/19 12:38:33;;;;;;;10.18;9.18;;;25.30;49.50;;;;;;5021359;28;20046;-86